Current Weather

Pleasanton Muni

Pleasanton, Texas (KPEZ)

Report from: Saturday, February 4, 2023 9:35 PM CST
Current time: Saturday, February 4, 2023 10:22 PM CST

Nearby weather
Weather history
Weather forecast

Temperature10.5°C (50.9°F)
Dew point7.7°C (45.9°F)
Winds Calm
Visibility10 mi. (16.1 km)
Clouds Sky clear
Altimeter30.26 in.Hg (1025 mB)
Relative humidity83 %
Density altitude-774 ft. (-236 m)
Remarks Fully automated report
Automated weather observing station with precipitation discriminator
Flight conditions Visual Meteorological Conditions
Raw dataKPEZ 050335Z AUTO 00000KT 10SM CLR 11/08 A3026 RMK AO2 T01050077
An unhandled exception has occurred. See browser dev tools for details. Reload 🗙